Time;durP1;ratioP1;P1;durP2;ratioP2;P2;SDS_P1;SDS_P2;PMS_P1;PMS_P2;Temp;Humidity;BMP_temperature;BMP_pressure;BME280_temperature;BME280_humidity;BME280_pressure;Samples;Min_cycle;Max_cycle;Signal;HPM_P1;HPM_P2
2022/06/09 00:01:37;;;;;;;5.18;4.65;;;;;;;14.04;100.00;100619.00;4913376;29;20044;-85
2022/06/09 00:04:23;;;;;;;7.63;5.63;;;;;;;13.99;100.00;100608.47;4929526;29;20162;-85
2022/06/09 00:07:00;;;;;;;9.88;6.30;;;;;;;13.99;100.00;100618.22;4932304;28;20055;-84
2022/06/09 00:09:45;;;;;;;6.82;6.15;;;;;;;13.98;100.00;100619.97;4924415;29;20046;-84
2022/06/09 00:12:13;;;;;;;11.52;8.32;;;;;;;13.99;100.00;100621.72;4904130;29;20048;-84
2022/06/09 00:14:43;;;;;;;11.07;9.13;;;;;;;14.03;100.00;100619.91;4897883;29;20036;-84
2022/06/09 00:17:11;;;;;;;14.77;9.38;;;;;;;14.02;100.00;100621.66;4901872;29;20046;-86
2022/06/09 00:19:39;;;;;;;10.57;8.98;;;;;;;14.04;100.00;100622.53;4906078;29;20044;-85
2022/06/09 00:22:11;;;;;;;14.30;10.13;;;;;;;14.06;100.00;100618.97;4914980;29;20262;-84
2022/06/09 00:24:39;;;;;;;10.18;9.15;;;;;;;14.08;100.00;100628.66;4917933;29;20059;-85
2022/06/09 00:27:07;;;;;;;12.80;9.40;;;;;;;14.09;100.00;100622.47;4898318;29;20434;-85
2022/06/09 00:29:36;;;;;;;10.05;8.55;;;;;;;14.11;100.00;100623.31;4868482;29;20047;-85
2022/06/09 00:32:05;;;;;;;12.60;9.55;;;;;;;14.11;100.00;100622.44;4925669;28;20178;-84
2022/06/09 00:34:33;;;;;;;15.57;10.68;;;;;;;14.12;100.00;100626.84;4900727;29;20036;-84
2022/06/09 00:37:04;;;;;;;13.43;10.85;;;;;;;14.12;100.00;100625.06;4908609;29;20056;-85
2022/06/09 00:39:33;;;;;;;10.75;9.25;;;;;;;14.13;100.00;100629.47;4911881;29;20038;-84
2022/06/09 00:42:01;;;;;;;18.48;12.13;;;;;;;14.14;100.00;100622.38;4909811;29;20268;-85
2022/06/09 00:44:30;;;;;;;16.73;12.05;;;;;;;14.14;100.00;100617.06;4911956;29;20047;-83
2022/06/09 00:47:11;;;;;;;16.02;11.65;;;;;;;14.15;100.00;100629.44;4921737;29;20051;-84
2022/06/09 00:49:47;;;;;;;17.98;13.50;;;;;;;14.14;100.00;100632.97;4909090;29;20063;-83
2022/06/09 00:52:19;;;;;;;19.90;13.95;;;;;;;14.13;100.00;100625.94;4908693;29;20179;-83
2022/06/09 00:54:57;;;;;;;23.00;14.82;;;;;;;14.12;100.00;100635.69;4890043;29;20532;-84
2022/06/09 00:57:34;;;;;;;17.70;14.30;;;;;;;14.11;100.00;100627.75;4942545;29;20040;-84
2022/06/09 01:00:14;;;;;;;24.08;15.95;;;;;;;14.11;100.00;100630.41;4933708;29;20244;-85
2022/06/09 01:02:44;;;;;;;19.95;15.20;;;;;;;14.10;100.00;100636.56;4892767;29;20048;-85
2022/06/09 01:05:18;;;;;;;16.90;12.95;;;;;;;14.09;100.00;100638.38;4926437;29;20044;-85
2022/06/09 01:07:54;;;;;;;24.65;15.15;;;;;;;14.09;100.00;100637.50;4897217;29;20055;-85
2022/06/09 01:10:29;;;;;;;17.95;14.25;;;;;;;14.10;100.00;100641.88;4914161;29;20474;-85
2022/06/09 01:12:58;;;;;;;26.10;17.55;;;;;;;14.08;100.00;100636.59;4906575;29;20718;-86
2022/06/09 01:15:40;;;;;;;31.17;18.08;;;;;;;14.07;100.00;100641.94;4877267;29;20506;-85
2022/06/09 01:18:35;;;;;;;30.05;17.25;;;;;;;14.03;100.00;100639.31;4917367;29;20055;-85
2022/06/09 01:21:25;;;;;;;35.58;21.02;;;;;;;14.02;100.00;100650.81;4944866;28;20059;-84
2022/06/09 01:24:11;;;;;;;26.70;17.88;;;;;;;14.01;100.00;100659.66;4923777;29;20117;-85
2022/06/09 01:26:48;;;;;;;32.78;19.77;;;;;;;14.01;100.00;100659.66;4915960;29;20058;-85
2022/06/09 01:29:39;;;;;;;35.10;19.88;;;;;;;14.00;100.00;100655.25;4917073;29;20059;-85
2022/06/09 01:32:23;;;;;;;38.97;20.60;;;;;;;13.99;100.00;100658.81;4910844;29;20052;-86
2022/06/09 01:35:03;;;;;;;40.88;20.48;;;;;;;13.98;100.00;100658.84;4912404;29;20082;-86
2022/06/09 01:37:38;;;;;;;36.53;20.65;;;;;;;13.96;100.00;100661.50;4896392;29;20068;-85
2022/06/09 01:40:10;;;;;;;39.63;20.98;;;;;;;13.95;100.00;100662.41;4908367;29;20048;-85
2022/06/09 01:42:41;;;;;;;39.42;20.80;;;;;;;13.95;100.00;100664.16;4922785;29;20702;-87
2022/06/09 01:45:13;;;;;;;53.60;24.70;;;;;;;13.95;100.00;100658.88;4933700;29;20051;-86
2022/06/09 01:47:53;;;;;;;55.65;23.83;;;;;;;13.95;100.00;100657.13;4916667;29;20801;-85
2022/06/09 01:50:38;;;;;;;41.03;21.90;;;;;;;13.94;100.00;100657.13;4915706;29;20040;-85
2022/06/09 01:53:11;;;;;;;55.55;24.90;;;;;;;13.94;100.00;100657.13;4927981;29;20052;-85
2022/06/09 01:55:45;;;;;;;49.63;24.27;;;;;;;13.93;100.00;100658.00;4900547;29;20071;-85
2022/06/09 01:58:17;;;;;;;53.65;24.95;;;;;;;13.92;100.00;100658.94;4899351;29;20044;-85
2022/06/09 02:00:46;;;;;;;50.92;24.35;;;;;;;13.90;100.00;100658.94;4913109;29;20044;-85
2022/06/09 02:03:27;;;;;;;39.17;20.90;;;;;;;13.90;100.00;100674.84;4882623;29;20056;-85
2022/06/09 02:05:59;;;;;;;44.53;24.75;;;;;;;13.91;100.00;100675.69;4918632;29;20048;-85
2022/06/09 02:08:31;;;;;;;56.88;23.98;;;;;;;13.91;100.00;100678.34;4914238;29;20059;-85
2022/06/09 02:11:06;;;;;;;57.55;26.60;;;;;;;13.91;100.00;100684.50;4910617;29;20059;-85
2022/06/09 02:13:42;;;;;;;58.03;26.10;;;;;;;13.91;100.00;100684.50;4928141;29;20043;-86
2022/06/09 02:16:16;;;;;;;57.17;25.67;;;;;;;13.91;100.00;100681.88;4915684;29;20040;-86
2022/06/09 02:18:48;;;;;;;53.75;24.73;;;;;;;13.91;100.00;100689.81;4915796;29;20670;-85
2022/06/09 02:21:19;;;;;;;54.00;23.65;;;;;;;13.91;100.00;100695.09;4926997;28;20048;-85
2022/06/09 02:23:53;;;;;;;60.10;26.27;;;;;;;13.92;100.00;100701.31;4914081;29;20032;-85
2022/06/09 02:26:22;;;;;;;55.30;25.05;;;;;;;13.92;100.00;100696.88;4913988;29;20059;-86
2022/06/09 02:28:51;;;;;;;58.72;26.25;;;;;;;13.91;100.00;100696.88;4898118;29;20033;-85
2022/06/09 02:31:21;;;;;;;54.53;25.88;;;;;;;13.92;100.00;100696.88;4902551;29;20535;-86
2022/06/09 02:33:52;;;;;;;67.78;27.92;;;;;;;13.92;100.00;100704.81;4915026;29;20041;-85
2022/06/09 02:36:20;;;;;;;52.13;26.13;;;;;;;13.92;100.00;100714.56;4886192;29;20028;-85
2022/06/09 02:38:49;;;;;;;61.67;27.25;;;;;;;13.91;100.00;100713.66;4913510;29;20174;-85
2022/06/09 02:41:18;;;;;;;60.35;26.45;;;;;;;13.91;100.00;100713.66;4898272;29;20052;-87
2022/06/09 02:43:46;;;;;;;74.90;29.15;;;;;;;13.91;100.00;100721.59;4915110;29;20240;-85
2022/06/09 02:46:15;;;;;;;66.05;26.50;;;;;;;13.91;100.00;100718.09;4913407;29;20048;-86
2022/06/09 02:48:44;;;;;;;57.97;26.75;;;;;;;13.89;100.00;100715.44;4925765;29;20512;-86
2022/06/09 02:51:16;;;;;;;66.85;27.92;;;;;;;13.88;100.00;100708.41;4900651;29;20055;-86
2022/06/09 02:53:45;;;;;;;66.97;28.40;;;;;;;13.87;100.00;100714.59;4914103;29;20048;-86
2022/06/09 02:56:13;;;;;;;54.05;24.67;;;;;;;13.86;100.00;100715.50;4896243;29;20028;-85
2022/06/09 02:58:42;;;;;;;57.78;26.17;;;;;;;13.84;100.00;100720.81;4922711;28;20048;-85
2022/06/09 03:01:10;;;;;;;66.78;28.73;;;;;;;13.84;100.00;100726.13;4933208;29;20052;-85
2022/06/09 03:03:39;;;;;;;54.60;28.30;;;;;;;13.84;100.00;100718.16;4906979;29;20044;-85
2022/06/09 03:06:08;;;;;;;70.07;30.13;;;;;;;13.82;100.00;100717.31;4909232;29;20044;-85
2022/06/09 03:08:37;;;;;;;67.82;29.08;;;;;;;13.81;100.00;100722.63;4905453;29;20552;-85
2022/06/09 03:11:06;;;;;;;58.90;25.80;;;;;;;13.79;100.00;100719.13;4898573;29;20045;-85
2022/06/09 03:13:34;;;;;;;52.97;27.10;;;;;;;13.76;100.00;100733.28;4874370;29;20158;-85
2022/06/09 03:16:05;;;;;;;47.83;25.20;;;;;;;13.73;100.00;100740.38;4899885;29;20040;-85
2022/06/09 03:18:34;;;;;;;54.55;27.77;;;;;;;13.72;100.00;100742.13;4899350;29;20059;-85
2022/06/09 03:21:03;;;;;;;50.55;25.60;;;;;;;13.71;100.00;100731.59;4911184;29;20052;-84
2022/06/09 03:23:31;;;;;;;56.03;29.17;;;;;;;13.70;100.00;100738.63;4896378;29;20051;-86
2022/06/09 03:26:00;;;;;;;48.45;27.45;;;;;;;13.72;100.00;100746.56;4918509;29;20044;-84
2022/06/09 03:28:29;;;;;;;54.83;27.67;;;;;;;13.72;100.00;100750.06;4905998;29;20032;-85
2022/06/09 03:30:59;;;;;;;56.53;30.10;;;;;;;13.72;100.00;100750.06;4907612;29;20044;-85
2022/06/09 03:33:27;;;;;;;64.63;29.42;;;;;;;13.72;100.00;100762.44;4927388;29;20048;-85
2022/06/09 03:35:56;;;;;;;55.53;28.27;;;;;;;13.70;100.00;100757.16;4898072;29;20044;-85
2022/06/09 03:38:24;;;;;;;53.30;27.58;;;;;;;13.70;100.00;100761.59;4911446;29;20032;-86
2022/06/09 03:40:53;;;;;;;49.00;27.70;;;;;;;13.67;100.00;100766.91;4906172;29;20145;-84
2022/06/09 03:43:21;;;;;;;57.00;28.73;;;;;;;13.67;100.00;100764.25;4890001;29;20401;-84
2022/06/09 03:45:49;;;;;;;55.75;29.63;;;;;;;13.66;100.00;100768.69;4890209;29;20071;-85
2022/06/09 03:48:18;;;;;;;54.63;27.65;;;;;;;13.64;100.00;100766.06;4918903;29;20400;-85
2022/06/09 03:50:46;;;;;;;52.50;27.70;;;;;;;13.63;100.00;100774.91;4890760;29;20078;-85
2022/06/09 03:53:15;;;;;;;58.92;28.30;;;;;;;13.62;100.00;100770.50;4896754;29;20520;-84
2022/06/09 03:55:43;;;;;;;64.15;30.98;;;;;;;13.63;100.00;100774.03;4899749;29;20254;-85
2022/06/09 03:58:12;;;;;;;48.22;27.48;;;;;;;13.61;100.00;100782.00;4918569;29;20047;-85
2022/06/09 04:00:40;;;;;;;45.90;25.73;;;;;;;13.59;100.00;100782.88;4890298;29;20039;-85
2022/06/09 04:03:09;;;;;;;51.78;27.40;;;;;;;13.56;100.00;100791.75;4926994;29;20039;-85
2022/06/09 04:05:38;;;;;;;49.95;26.83;;;;;;;13.55;100.00;100786.47;4896467;29;20048;-86
2022/06/09 04:08:10;;;;;;;54.67;29.90;;;;;;;13.56;100.00;100796.16;4895615;29;20061;-85
2022/06/09 04:10:39;;;;;;;47.20;26.67;;;;;;;13.57;100.00;100795.25;4917932;29;20582;-86
2022/06/09 04:13:08;;;;;;;42.00;26.60;;;;;;;13.55;100.00;100805.84;4899468;29;20040;-85
2022/06/09 04:15:37;;;;;;;51.55;29.67;;;;;;;13.55;100.00;100805.84;4900827;29;20048;-86
2022/06/09 04:18:06;;;;;;;43.72;27.13;;;;;;;13.54;100.00;100812.06;4934573;29;20024;-86
2022/06/09 04:20:34;;;;;;;54.20;29.55;;;;;;;13.55;100.00;100819.09;4914233;29;20668;-85
2022/06/09 04:23:03;;;;;;;57.88;30.30;;;;;;;13.57;100.00;100819.09;4893765;29;20051;-85
2022/06/09 04:25:32;;;;;;;49.75;28.27;;;;;;;13.57;100.00;100817.34;4890849;29;20040;-85
2022/06/09 04:28:00;;;;;;;48.28;29.05;;;;;;;13.57;100.00;100822.63;4927076;29;20381;-85
2022/06/09 04:30:32;;;;;;;54.28;29.83;;;;;;;13.58;100.00;100820.84;4897126;29;20051;-85
2022/06/09 04:33:01;;;;;;;53.47;29.42;;;;;;;13.57;100.00;100827.94;4905644;29;20040;-86
2022/06/09 04:35:30;;;;;;;60.00;30.88;;;;;;;13.58;100.00;100829.66;4903100;29;20047;-86
2022/06/09 04:38:01;;;;;;;53.00;30.70;;;;;;;13.59;100.00;100836.72;4909144;29;20040;-85
2022/06/09 04:40:30;;;;;;;47.97;28.40;;;;;;;13.57;100.00;100838.53;4885627;29;20053;-85
2022/06/09 04:42:58;;;;;;;51.67;29.70;;;;;;;13.57;100.00;100835.88;4905112;29;20075;-85
2022/06/09 04:45:27;;;;;;;49.75;29.40;;;;;;;13.59;100.00;100836.72;4875703;29;20060;-85
2022/06/09 04:47:56;;;;;;;54.20;30.33;;;;;;;13.60;100.00;100843.75;4887869;29;20048;-85
2022/06/09 04:50:25;;;;;;;39.88;26.48;;;;;;;13.61;100.00;100847.28;4892307;29;20616;-86
2022/06/09 04:52:53;;;;;;;45.08;27.60;;;;;;;13.61;100.00;100845.53;4874080;29;20541;-85
2022/06/09 04:55:22;;;;;;;50.45;27.48;;;;;;;13.63;100.00;100849.03;4905817;29;20057;-85
2022/06/09 04:57:50;;;;;;;51.97;30.17;;;;;;;13.65;100.00;100852.56;4879936;29;20289;-85
2022/06/09 05:00:19;;;;;;;43.42;26.65;;;;;;;13.68;100.00;100858.72;4892592;29;20063;-85
2022/06/09 05:02:50;;;;;;;46.95;28.38;;;;;;;13.68;100.00;100872.81;4872613;29;20268;-86
2022/06/09 05:05:27;;;;;;;54.83;28.30;;;;;;;13.70;100.00;100871.03;4862953;29;20515;-85
2022/06/09 05:07:56;;;;;;;51.10;29.58;;;;;;;13.71;100.00;100875.44;4893627;29;20045;-86
2022/06/09 05:10:26;;;;;;;46.50;27.02;;;;;;;13.72;100.00;100873.66;4864372;29;20053;-86
2022/06/09 05:12:55;;;;;;;52.53;31.27;;;;;;;13.73;100.00;100875.44;4915916;29;20060;-86
2022/06/09 05:15:23;;;;;;;44.95;28.13;;;;;;;13.73;100.00;100878.97;4904229;29;20047;-85
2022/06/09 05:17:53;;;;;;;60.30;32.22;;;;;;;13.74;100.00;100880.72;4885324;29;20052;-86
2022/06/09 05:20:23;;;;;;;45.72;27.42;;;;;;;13.75;100.00;100881.59;4919204;29;20066;-86
2022/06/09 05:22:51;;;;;;;46.33;28.90;;;;;;;13.76;100.00;100886.00;4902287;29;20416;-86
2022/06/09 05:25:20;;;;;;;53.88;30.30;;;;;;;13.79;100.00;100888.63;4909464;29;20293;-85
2022/06/09 05:27:48;;;;;;;63.20;32.80;;;;;;;13.81;100.00;100892.13;4917493;29;20517;-85
2022/06/09 05:30:21;;;;;;;55.03;31.40;;;;;;;13.83;100.00;100893.00;4912857;29;20044;-86
2022/06/09 05:32:49;;;;;;;58.13;31.40;;;;;;;13.86;100.00;100902.69;4889605;29;21871;-85
2022/06/09 05:35:20;;;;;;;45.97;27.67;;;;;;;13.86;100.00;100906.22;4893431;29;20047;-86
2022/06/09 05:46:15;;;;;;;52.28;27.95;;;;;;;13.92;100.00;100910.56;4919048;28;20059;-86
2022/06/09 05:48:46;;;;;;;41.47;27.48;;;;;;;13.95;100.00;100913.19;4900909;29;20774;-85
2022/06/09 05:51:16;;;;;;;40.08;24.70;;;;;;;13.97;100.00;100911.38;4909365;29;20055;-84
2022/06/09 05:53:45;;;;;;;37.70;22.83;;;;;;;14.00;100.00;100912.25;4910508;29;20048;-84
2022/06/09 05:56:14;;;;;;;36.17;22.70;;;;;;;14.04;100.00;100921.94;4912411;29;20044;-84
2022/06/09 05:58:43;;;;;;;31.13;19.65;;;;;;;14.10;100.00;100923.66;4911610;29;20063;-84
2022/06/09 06:01:13;;;;;;;24.02;17.75;;;;;;;14.19;100.00;100933.25;4870304;29;20075;-84
2022/06/09 06:03:42;;;;;;;24.75;17.58;;;;;;;14.23;100.00;100945.59;4909799;29;20040;-84
2022/06/09 06:08:57;;;;;;;16.98;14.90;;;;;;;14.32;100.00;100944.63;4880677;29;20036;-84
2022/06/09 06:11:26;;;;;;;20.60;15.90;;;;;;;14.52;100.00;100939.09;4908110;29;20036;-84
2022/06/09 06:13:54;;;;;;;17.30;14.60;;;;;;;14.79;100.00;100948.53;4892903;29;20732;-84
2022/06/09 06:16:24;;;;;;;17.50;13.85;;;;;;;14.94;100.00;100956.28;4886651;29;20060;-84
2022/06/09 06:19:10;;;;;;;26.20;18.42;;;;;;;15.09;100.00;100965.81;4913135;29;20063;-83
2022/06/09 06:21:39;;;;;;;;;;;;;;;15.22;100.00;100971.84;4887393;29;20571;-85
2022/06/09 06:24:08;;;;;;;31.17;21.88;;;;;;;15.19;100.00;100980.69;4883304;29;20269;-87
2022/06/09 06:26:37;;;;;;;34.53;22.53;;;;;;;15.15;100.00;100999.34;4909052;29;20540;-83
2022/06/09 06:29:10;;;;;;;37.00;23.63;;;;;;;15.04;100.00;100999.50;4902052;29;20056;-83
2022/06/09 06:31:38;;;;;;;33.85;23.00;;;;;;;14.96;100.00;101001.38;4908733;29;20270;-83
2022/06/09 06:34:07;;;;;;;33.90;24.65;;;;;;;14.89;100.00;101005.00;4864478;29;20045;-83
2022/06/09 06:36:36;;;;;;;33.20;23.77;;;;;;;14.86;100.00;101010.31;4885044;29;20497;-83
2022/06/09 06:39:04;;;;;;;32.80;23.73;;;;;;;14.81;100.00;101028.97;4896021;29;20067;-84
2022/06/09 06:41:32;;;;;;;39.35;24.70;;;;;;;14.78;100.00;101023.69;4910252;29;20048;-85
2022/06/09 06:44:01;;;;;;;37.20;24.52;;;;;;;14.74;100.00;101027.28;4897222;29;20048;-84
2022/06/09 06:46:29;;;;;;;33.17;24.55;;;;;;;14.69;100.00;101035.28;4919078;29;20067;-84
2022/06/09 06:48:58;;;;;;;32.13;25.38;;;;;;;14.65;100.00;101038.88;4917883;29;20040;-84
2022/06/09 06:51:26;;;;;;;31.08;24.90;;;;;;;14.61;100.00;101042.44;4868940;29;20292;-83
2022/06/09 06:53:55;;;;;;;33.20;24.20;;;;;;;14.60;100.00;101036.25;4902845;29;20049;-84
2022/06/09 06:56:23;;;;;;;35.17;26.65;;;;;;;14.59;100.00;101033.63;4901305;29;20067;-83
2022/06/09 06:58:51;;;;;;;32.78;23.05;;;;;;;14.62;100.00;101038.91;4917998;29;20047;-84
2022/06/09 07:01:20;;;;;;;32.90;23.80;;;;;;;14.68;100.00;101038.81;4906025;29;20055;-84
2022/06/09 07:03:48;;;;;;;30.33;21.63;;;;;;;14.73;100.00;101034.34;4915035;29;20051;-84
2022/06/09 07:06:17;;;;;;;27.33;21.48;;;;;;;14.85;100.00;101048.38;4911281;29;20378;-84
2022/06/09 07:08:46;;;;;;;24.60;21.30;;;;;;;14.99;100.00;101047.34;4902308;29;20036;-84
2022/06/09 07:11:14;;;;;;;25.85;20.58;;;;;;;15.11;100.00;101048.09;4896769;29;20035;-84
2022/06/09 07:13:43;;;;;;;29.45;20.10;;;;;;;15.15;100.00;101061.28;4886694;29;20055;-84
2022/06/09 07:16:12;;;;;;;21.85;17.67;;;;;;;15.18;100.00;101053.28;4898917;29;20044;-84
2022/06/09 07:19:01;;;;;;;16.48;14.65;;;;;;;15.20;100.00;101055.94;4906611;29;20039;-84
2022/06/09 07:21:30;;;;;;;17.02;15.25;;;;;;;15.25;100.00;101061.16;4892219;29;20139;-84
2022/06/09 07:23:59;;;;;;;21.40;16.98;;;;;;;15.29;100.00;101062.88;4903587;29;20052;-83
2022/06/09 07:26:30;;;;;;;23.58;18.25;;;;;;;15.30;100.00;101067.31;4915572;28;20067;-84
2022/06/09 07:28:59;;;;;;;22.88;19.52;;;;;;;15.34;100.00;101074.34;4905423;29;20051;-85
2022/06/09 07:31:28;;;;;;;22.85;18.58;;;;;;;15.42;100.00;101072.44;4899377;29;20044;-84
2022/06/09 07:33:56;;;;;;;20.00;17.52;;;;;;;15.50;100.00;101072.34;4899311;29;20527;-83
2022/06/09 07:36:26;;;;;;;18.35;16.52;;;;;;;15.54;100.00;101077.59;4890706;29;20274;-84
2022/06/09 07:38:55;;;;;;;17.98;16.08;;;;;;;15.63;100.00;101073.06;4947156;28;20063;-84
2022/06/09 07:41:24;;;;;;;18.75;16.10;;;;;;;15.74;100.00;101090.63;4881009;29;20533;-83
2022/06/09 07:44:01;;;;;;;15.00;13.40;;;;;;;15.76;100.00;101087.94;4886972;29;20052;-83
2022/06/09 07:46:31;;;;;;;15.77;13.93;;;;;;;15.87;100.00;101082.50;4912171;29;20055;-83
2022/06/09 07:49:00;;;;;;;11.85;10.75;;;;;;;15.97;100.00;101092.06;4907002;29;20044;-82
2022/06/09 07:51:30;;;;;;;10.27;8.77;;;;;;;16.01;100.00;101093.81;4894568;29;20598;-83
2022/06/09 07:53:59;;;;;;;11.10;9.97;;;;;;;16.15;100.00;101093.56;4911978;29;20052;-84
2022/06/09 07:56:29;;;;;;;11.25;10.15;;;;;;;16.24;100.00;101100.50;4876934;29;20178;-84
2022/06/09 07:59:00;;;;;;;12.55;10.48;;;;;;;16.40;100.00;101090.50;4908687;29;20088;-84
2022/06/09 08:01:33;;;;;;;12.55;10.57;;;;;;;16.62;100.00;101099.88;4933713;29;20044;-84
2022/06/09 08:04:02;;;;;;;10.52;9.18;;;;;;;16.79;100.00;101093.38;4912410;29;20051;-84
2022/06/09 08:06:31;;;;;;;8.35;7.53;;;;;;;16.90;100.00;101105.59;4890202;29;20703;-84
2022/06/09 08:09:00;;;;;;;7.72;6.45;;;;;;;16.97;100.00;101094.81;4905663;29;20052;-85
2022/06/09 08:11:35;;;;;;;8.60;6.70;;;;;;;17.02;100.00;101107.13;4902835;29;20630;-84
2022/06/09 08:14:05;;;;;;;9.65;6.93;;;;;;;17.00;100.00;101100.09;4905585;29;20059;-83
2022/06/09 08:16:34;;;;;;;8.63;7.53;;;;;;;17.02;100.00;101099.16;4889853;29;20549;-84
2022/06/09 08:19:03;;;;;;;7.78;7.03;;;;;;;16.94;100.00;101112.63;4911135;29;20055;-84
2022/06/09 08:21:33;;;;;;;9.95;5.80;;;;;;;16.93;100.00;101108.19;4924991;29;20589;-84
2022/06/09 08:24:20;;;;;;;4.40;4.00;;;;;;;17.01;100.00;101117.81;4906697;29;20139;-84
2022/06/09 08:26:48;;;;;;;4.47;4.05;;;;;;;17.10;100.00;101120.31;4908277;29;20036;-84
2022/06/09 08:29:24;;;;;;;6.70;4.13;;;;;;;17.20;100.00;101121.91;4884139;29;20271;-84
2022/06/09 08:31:54;;;;;;;4.60;4.20;;;;;;;17.19;100.00;101129.91;4903283;29;20043;-85
2022/06/09 08:34:23;;;;;;;4.40;3.72;;;;;;;17.23;100.00;101134.25;4910409;29;20441;-84
2022/06/09 08:36:52;;;;;;;3.83;3.30;;;;;;;17.33;100.00;101141.13;4899518;29;20045;-85
2022/06/09 08:39:21;;;;;;;5.90;3.25;;;;;;;17.43;100.00;101148.06;4901144;29;20229;-84
2022/06/09 08:41:58;;;;;;;4.85;3.20;;;;;;;17.47;100.00;101148.88;4899694;29;20044;-84
2022/06/09 08:45:02;;;;;;;2.97;2.35;;;;;;;17.55;100.00;101162.91;4893967;29;20059;-84
2022/06/09 08:47:45;;;;;;;4.00;2.45;;;;;;;17.61;100.00;101151.25;4919195;29;20044;-83
2022/06/09 08:50:29;;;;;;;4.05;2.42;;;;;;;17.70;100.00;101156.38;4922721;29;20052;-83
2022/06/09 08:53:05;;;;;;;3.60;2.75;;;;;;;17.74;100.00;101152.72;4903348;29;20513;-84
2022/06/09 08:55:36;;;;;;;5.75;2.75;;;;;;;17.81;100.00;101159.69;4907438;29;20040;-83
2022/06/09 08:58:08;;;;;;;4.35;2.40;;;;;;;17.87;100.00;101159.59;4893816;29;20043;-83
2022/06/09 09:00:41;;;;;;;4.68;2.20;;;;;;;17.93;100.00;101164.75;4889389;29;20062;-84
2022/06/09 09:03:18;;;;;;;2.78;2.03;;;;;;;17.86;100.00;101165.84;4902959;29;20249;-83
2022/06/09 09:06:04;;;;;;;4.63;2.30;;;;;;;17.84;100.00;101166.72;4901165;29;20146;-83
2022/06/09 09:08:36;;;;;;;4.80;2.05;;;;;;;17.89;100.00;101173.75;4931265;28;20528;-83
2022/06/09 09:11:28;;;;;;;6.30;2.07;;;;;;;17.96;100.00;101184.28;4907378;29;20719;-83
2022/06/09 09:14:11;;;;;;;3.83;1.77;;;;;;;18.09;100.00;101192.00;4901323;29;20289;-83
2022/06/09 09:17:16;;;;;;;3.42;1.60;;;;;;;18.09;100.00;101188.41;4909554;29;20051;-83
2022/06/09 09:19:53;;;;;;;4.03;1.35;;;;;;;18.11;100.00;101179.50;4893708;29;20032;-84
2022/06/09 09:22:43;;;;;;;4.28;1.70;;;;;;;18.16;100.00;101192.69;4914063;29;20169;-84
2022/06/09 09:25:25;;;;;;;2.90;1.33;;;;;;;18.23;100.00;101189.00;4914708;28;20055;-84
2022/06/09 09:28:15;;;;;;;3.60;1.58;;;;;;;18.26;100.00;101207.59;4900359;29;20397;-83
2022/06/09 09:31:20;;;;;;;5.88;1.40;;;;;;;18.22;100.00;101202.34;4889547;29;20051;-85
2022/06/09 09:33:49;;;;;;;3.58;1.48;;;;;;;18.15;100.00;101198.06;4899698;29;20036;-83
2022/06/09 09:36:22;;;;;;;5.03;1.55;;;;;;;18.15;100.00;101209.63;4882494;29;20041;-84
2022/06/09 09:39:01;;;;;;;1.98;0.90;;;;;;;18.20;100.00;101214.84;4907626;29;20056;-83
2022/06/09 09:41:33;;;;;;;4.97;1.52;;;;;;;18.30;100.00;101216.41;4886573;29;20450;-84
2022/06/09 09:44:18;;;;;;;2.50;1.60;;;;;;;18.40;100.00;101219.75;4901305;29;20044;-84
2022/06/09 09:46:59;;;;;;;3.35;1.17;;;;;;;18.62;100.00;101217.41;4901799;29;20044;-83
2022/06/09 09:49:32;;;;;;;4.15;1.63;;;;;;;18.83;100.00;101224.09;4909530;28;20060;-83
2022/06/09 09:52:04;;;;;;;4.38;1.67;;;;;;;18.98;100.00;101237.03;4908498;29;20051;-84
2022/06/09 09:54:38;;;;;;;5.55;1.40;;;;;;;19.01;100.00;101234.28;4915096;28;20052;-84
2022/06/09 09:57:18;;;;;;;4.80;1.58;;;;;;;19.07;100.00;101241.25;4908844;29;20067;-84
2022/06/09 09:59:53;;;;;;;5.50;1.40;;;;;;;18.96;100.00;101252.22;4907455;29;20047;-84
2022/06/09 10:08:46;;;;;;;3.13;1.33;;;;;;;18.82;100.00;101254.34;4892831;29;20028;-84
2022/06/09 10:14:45;;;;;;;5.93;1.30;;;;;;;19.02;100.00;101259.22;4904185;29;20051;-84
2022/06/09 10:17:37;;;;;;;4.57;1.30;;;;;;;19.19;100.00;101261.44;4893297;29;20461;-84
2022/06/09 10:20:28;;;;;;;4.30;1.65;;;;;;;19.35;100.00;101270.78;4893784;29;20635;-84
2022/06/09 10:23:06;;;;;;;7.18;1.20;;;;;;;19.46;100.00;101265.16;4901712;29;20047;-84
2022/06/09 10:26:02;;;;;;;7.72;1.85;;;;;;;19.50;100.00;101276.66;4903532;29;20052;-84
2022/06/09 10:28:40;;;;;;;2.72;1.13;;;;;;;19.60;100.00;101281.72;4909614;29;20052;-84
2022/06/09 10:31:31;;;;;;;3.03;1.40;;;;;;;19.63;100.00;101275.41;4893102;29;20409;-83
2022/06/09 10:38:25;;;;;;;5.47;1.80;;;;;;;19.89;100.00;101281.84;4921706;29;20041;-83
2022/06/09 10:40:58;;;;;;;3.78;1.10;;;;;;;19.75;100.00;101293.78;4896656;29;20068;-85
2022/06/09 10:43:39;;;;;;;2.25;1.15;;;;;;;19.50;100.00;101298.03;4900019;29;20628;-84
2022/06/09 10:46:40;;;;;;;4.95;1.42;;;;;;;19.28;98.90;101303.94;4899880;29;20059;-85
2022/06/09 10:55:15;;;;;;;5.47;1.20;;;;;;;19.74;99.42;101309.91;4914104;29;20052;-85
2022/06/09 10:58:08;;;;;;;4.47;1.38;;;;;;;19.70;100.00;101321.53;4897129;29;20051;-84
2022/06/09 11:00:41;;;;;;;3.97;1.30;;;;;;;19.83;100.00;101313.19;4901626;29;20060;-84
2022/06/09 11:03:22;;;;;;;4.75;1.70;;;;;;;19.92;100.00;101311.16;4878966;29;20385;-84
2022/06/09 11:06:09;;;;;;;5.05;1.35;;;;;;;19.88;98.43;101325.56;4919126;29;20528;-83
2022/06/09 11:09:10;;;;;;;6.07;1.50;;;;;;;19.66;96.25;101320.78;4907379;29;20064;-85
2022/06/09 11:11:44;;;;;;;7.47;1.23;;;;;;;19.70;96.12;101319.75;4897215;29;20055;-83
2022/06/09 11:14:30;;;;;;;3.47;0.90;;;;;;;19.77;92.05;101326.75;4900377;29;20413;-84
2022/06/09 11:17:19;;;;;;;4.05;1.15;;;;;;;19.81;93.00;101324.81;4905802;29;20065;-87
2022/06/09 11:19:54;;;;;;;3.47;1.40;;;;;;;19.90;95.23;101324.56;4904485;29;20056;-85
2022/06/09 11:23:02;;;;;;;7.05;1.65;;;;;;;20.15;95.11;101330.13;4904667;29;20760;-85
2022/06/09 11:25:41;;;;;;;4.32;1.20;;;;;;;20.28;95.11;101349.34;4920080;29;20052;-85
2022/06/09 11:28:29;;;;;;;6.43;1.88;;;;;;;20.37;92.15;101346.41;4909199;29;20144;-85
2022/06/09 11:31:35;;;;;;;3.55;1.23;;;;;;;20.48;94.23;101343.41;4914152;29;20060;-84
2022/06/09 11:34:23;;;;;;;3.45;1.35;;;;;;;20.49;93.31;101355.00;4885439;29;20048;-84
2022/06/09 11:36:54;;;;;;;3.95;1.80;;;;;;;20.53;93.17;101352.19;4905251;29;20413;-83
2022/06/09 11:39:55;;;;;;;4.55;1.27;;;;;;;20.53;91.68;101359.31;4908162;29;20051;-83
2022/06/09 11:42:38;;;;;;;5.60;1.60;;;;;;;20.53;91.30;101360.22;4892385;29;20056;-85
2022/06/09 11:45:27;;;;;;;3.53;1.35;;;;;;;20.54;90.98;101363.78;4913917;29;20047;-84
2022/06/09 11:47:58;;;;;;;2.53;1.17;;;;;;;20.61;92.22;101365.38;4907083;29;20047;-86
2022/06/09 11:50:40;;;;;;;4.72;1.17;;;;;;;20.72;91.98;101360.56;4902149;29;20043;-87
2022/06/09 11:53:18;;;;;;;5.55;1.50;;;;;;;20.88;89.57;101368.13;4905567;29;20052;-86
2022/06/09 11:55:57;;;;;;;4.95;1.10;;;;;;;20.95;88.16;101367.88;4916850;29;20041;-87
2022/06/09 11:58:34;;;;;;;2.13;1.20;;;;;;;21.06;86.39;101366.66;4897800;29;20048;-87
2022/06/09 12:01:15;;;;;;;2.47;0.90;;;;;;;21.20;84.03;101375.13;4901364;29;20052;-86
2022/06/09 12:03:54;;;;;;;2.28;1.00;;;;;;;21.28;83.01;101381.09;4914709;29;20040;-86
2022/06/09 12:06:41;;;;;;;3.80;1.05;;;;;;;21.27;81.85;101382.03;4906561;29;20158;-86
2022/06/09 12:09:27;;;;;;;3.58;1.10;;;;;;;21.10;83.54;101381.72;4897767;29;20087;-86